Terminal Aerodrome Forecast
Issued by NWS

Home | Current Version | Previous Version | Text Only | Print | Product List | Glossary On
Versions: 1 2 3 4 5 6 7 8 9 10 11 12 13 14 15 16 17 18 19 20 21 22 23 24
000
FTUS45 KBOU 200247 AAA
TAFBJC
TAF AMD
KBJC 200247Z 2003/2024 30010KT P6SM VCSH SCT050 BKN080
      TEMPO 2003/2006 -SHRA BKN050
     FM200600 24007KT P6SM SCT070 BKN100
     FM200900 24007KT P6SM FEW100 SCT140 BKN200
     FM201400 30007KT P6SM SCT110 BKN200
     FM201800 36010KT P6SM SCT080 SCT120
     FM202100 01010KT P6SM VCSH SCT080 BKN120=

USA.gov is the U.S. government's official web portal to all federal, state and local government web resources and services.